Lyons, Illinois
Current Conditions -  °F | °C
As of 10:53 PM on Tuesday 21 Oct 2014 (Local Time) from KMDW Reporting Station
Overcast Overcast  
Wind Chill: 51°   Ceiling: 3200
Heat Index: 51°   Visibility: 10mi
Dew Point: 39°   Wind: 8mph
Humidity: 63%   Direction: 60°ENE
Pressure: 30.25"   Gusts: NA
Location:  41.82°N, 87.81°W
Report Text: KMDW 220353Z 06007KT 10SM OVC032 11/04 A3025 RMK AO2 SLP247 T01060039
Loading
Personal Weather Stations






























Interactive Weather Map
Tropical Storm Tracking
New forecast layout! Learn more

10-Day Weather Forecast

Advertisements
Track Severe Weather on mobile